Chicago, Illinois
Traffic Map
Current Weather Conditions
Chicago, Illinois
Scattered Clouds
Scattered Clouds
68°
Feels Like: 68°
Wind Chill: 68° Ceiling: Unl
Heat Index: 68° Visibility: 10mi
Dew Point: 37° Wind: 14mph
Humidity: 32% Direction: 180° (S)
Pressure: 29.9in Gusts: 22mph
Raw Report DataKMDW 020053Z 18012G19KT 10SM SCT250 20/03 A2990 RMK AO2 SLP122 T02000028
Traffic Incident Summary
Active as of:
Severity:
Category:
InformationThere was an issue retrieving the traffic information for this location. Please try a different location or try again shortly.
Advertisements
Track Severe Weather on mobile